sensor_id;sensor_type;location;lat;lon;timestamp;P1;durP1;ratioP1;P2;durP2;ratioP2
24585;SDS011;12743;52.262;6.172;2022-12-18T00:01:15;69.63;;;23.30;;
24585;SDS011;12743;52.262;6.172;2022-12-18T00:03:44;63.85;;;20.80;;
24585;SDS011;12743;52.262;6.172;2022-12-18T00:06:13;75.47;;;23.88;;
24585;SDS011;12743;52.262;6.172;2022-12-18T00:08:43;62.42;;;20.45;;
24585;SDS011;12743;52.262;6.172;2022-12-18T00:11:12;66.47;;;20.80;;
24585;SDS011;12743;52.262;6.172;2022-12-18T00:13:41;72.60;;;23.03;;
24585;SDS011;12743;52.262;6.172;2022-12-18T00:16:13;62.25;;;22.20;;
24585;SDS011;12743;52.262;6.172;2022-12-18T00:18:42;60.22;;;21.48;;
24585;SDS011;12743;52.262;6.172;2022-12-18T00:21:09;73.60;;;24.90;;
24585;SDS011;12743;52.262;6.172;2022-12-18T00:23:37;64.78;;;20.45;;
24585;SDS011;12743;52.262;6.172;2022-12-18T00:26:06;63.87;;;21.27;;
24585;SDS011;12743;52.262;6.172;2022-12-18T00:28:41;59.22;;;20.48;;
24585;SDS011;12743;52.262;6.172;2022-12-18T00:31:09;58.20;;;20.88;;
24585;SDS011;12743;52.262;6.172;2022-12-18T00:33:38;61.70;;;20.40;;
24585;SDS011;12743;52.262;6.172;2022-12-18T00:36:22;54.95;;;19.98;;
24585;SDS011;12743;52.262;6.172;2022-12-18T00:38:51;60.00;;;19.97;;
24585;SDS011;12743;52.262;6.172;2022-12-18T00:41:19;59.35;;;20.30;;
24585;SDS011;12743;52.262;6.172;2022-12-18T00:44:05;57.30;;;19.15;;
24585;SDS011;12743;52.262;6.172;2022-12-18T00:46:33;53.88;;;19.38;;
24585;SDS011;12743;52.262;6.172;2022-12-18T00:49:00;55.60;;;19.40;;
24585;SDS011;12743;52.262;6.172;2022-12-18T00:51:27;54.40;;;19.63;;
24585;SDS011;12743;52.262;6.172;2022-12-18T00:53:53;61.00;;;19.23;;
24585;SDS011;12743;52.262;6.172;2022-12-18T00:56:20;56.83;;;21.00;;
24585;SDS011;12743;52.262;6.172;2022-12-18T00:58:47;67.65;;;21.60;;
24585;SDS011;12743;52.262;6.172;2022-12-18T01:01:13;59.72;;;19.60;;
24585;SDS011;12743;52.262;6.172;2022-12-18T01:03:40;62.20;;;21.70;;
24585;SDS011;12743;52.262;6.172;2022-12-18T01:06:09;60.88;;;21.90;;
24585;SDS011;12743;52.262;6.172;2022-12-18T01:08:37;64.50;;;19.25;;
24585;SDS011;12743;52.262;6.172;2022-12-18T01:11:08;56.83;;;20.00;;
24585;SDS011;12743;52.262;6.172;2022-12-18T01:13:38;61.05;;;21.80;;
24585;SDS011;12743;52.262;6.172;2022-12-18T01:16:06;58.33;;;20.33;;
24585;SDS011;12743;52.262;6.172;2022-12-18T01:18:34;62.17;;;20.23;;
24585;SDS011;12743;52.262;6.172;2022-12-18T01:21:00;56.70;;;19.40;;
24585;SDS011;12743;52.262;6.172;2022-12-18T01:23:32;58.60;;;19.25;;
24585;SDS011;12743;52.262;6.172;2022-12-18T01:26:03;53.38;;;18.95;;
24585;SDS011;12743;52.262;6.172;2022-12-18T01:28:34;60.10;;;19.23;;
24585;SDS011;12743;52.262;6.172;2022-12-18T01:31:14;59.15;;;18.70;;
24585;SDS011;12743;52.262;6.172;2022-12-18T01:33:49;49.58;;;17.15;;
24585;SDS011;12743;52.262;6.172;2022-12-18T01:36:26;56.80;;;19.08;;
24585;SDS011;12743;52.262;6.172;2022-12-18T01:39:05;59.25;;;19.65;;
24585;SDS011;12743;52.262;6.172;2022-12-18T01:41:34;59.13;;;18.93;;
24585;SDS011;12743;52.262;6.172;2022-12-18T01:50:18;58.05;;;18.92;;
24585;SDS011;12743;52.262;6.172;2022-12-18T01:52:52;49.97;;;18.02;;
24585;SDS011;12743;52.262;6.172;2022-12-18T01:55:22;46.83;;;17.20;;
24585;SDS011;12743;52.262;6.172;2022-12-18T01:57:54;46.13;;;16.58;;
24585;SDS011;12743;52.262;6.172;2022-12-18T02:00:22;50.20;;;16.70;;
24585;SDS011;12743;52.262;6.172;2022-12-18T02:02:50;46.53;;;18.15;;
24585;SDS011;12743;52.262;6.172;2022-12-18T02:05:19;53.53;;;17.50;;
24585;SDS011;12743;52.262;6.172;2022-12-18T02:08:05;55.70;;;17.67;;
24585;SDS011;12743;52.262;6.172;2022-12-18T02:10:41;48.00;;;16.85;;
24585;SDS011;12743;52.262;6.172;2022-12-18T02:18:52;48.22;;;16.92;;
24585;SDS011;12743;52.262;6.172;2022-12-18T02:21:32;47.67;;;15.93;;
24585;SDS011;12743;52.262;6.172;2022-12-18T02:24:13;47.20;;;16.27;;
24585;SDS011;12743;52.262;6.172;2022-12-18T02:27:01;47.58;;;16.95;;
24585;SDS011;12743;52.262;6.172;2022-12-18T02:29:36;45.08;;;15.52;;
24585;SDS011;12743;52.262;6.172;2022-12-18T02:32:08;51.17;;;18.63;;
24585;SDS011;12743;52.262;6.172;2022-12-18T02:34:40;45.03;;;16.87;;
24585;SDS011;12743;52.262;6.172;2022-12-18T02:37:12;48.20;;;18.92;;
24585;SDS011;12743;52.262;6.172;2022-12-18T02:39:43;47.70;;;16.75;;
24585;SDS011;12743;52.262;6.172;2022-12-18T02:42:13;46.60;;;16.05;;
24585;SDS011;12743;52.262;6.172;2022-12-18T02:44:45;44.40;;;16.42;;
24585;SDS011;12743;52.262;6.172;2022-12-18T02:47:22;54.50;;;17.67;;
24585;SDS011;12743;52.262;6.172;2022-12-18T02:49:53;43.65;;;15.38;;
24585;SDS011;12743;52.262;6.172;2022-12-18T02:55:26;46.45;;;16.75;;
24585;SDS011;12743;52.262;6.172;2022-12-18T02:58:14;42.42;;;16.80;;
24585;SDS011;12743;52.262;6.172;2022-12-18T03:00:58;46.83;;;16.27;;
24585;SDS011;12743;52.262;6.172;2022-12-18T03:03:34;37.83;;;14.18;;
24585;SDS011;12743;52.262;6.172;2022-12-18T03:06:07;44.08;;;15.68;;
24585;SDS011;12743;52.262;6.172;2022-12-18T03:08:44;45.58;;;17.00;;
24585;SDS011;12743;52.262;6.172;2022-12-18T03:11:16;44.08;;;16.63;;
24585;SDS011;12743;52.262;6.172;2022-12-18T03:14:04;41.50;;;16.30;;
24585;SDS011;12743;52.262;6.172;2022-12-18T03:16:33;43.08;;;16.15;;
24585;SDS011;12743;52.262;6.172;2022-12-18T03:19:08;42.80;;;17.50;;
24585;SDS011;12743;52.262;6.172;2022-12-18T03:21:43;46.90;;;17.85;;
24585;SDS011;12743;52.262;6.172;2022-12-18T03:24:15;42.40;;;15.98;;
24585;SDS011;12743;52.262;6.172;2022-12-18T03:26:45;43.90;;;16.70;;
24585;SDS011;12743;52.262;6.172;2022-12-18T03:32:28;36.95;;;13.88;;
24585;SDS011;12743;52.262;6.172;2022-12-18T03:34:59;38.65;;;16.10;;
24585;SDS011;12743;52.262;6.172;2022-12-18T03:37:34;38.92;;;14.02;;
24585;SDS011;12743;52.262;6.172;2022-12-18T03:40:02;39.77;;;14.97;;
24585;SDS011;12743;52.262;6.172;2022-12-18T03:48:07;38.17;;;14.23;;
24585;SDS011;12743;52.262;6.172;2022-12-18T03:50:47;39.45;;;13.80;;
24585;SDS011;12743;52.262;6.172;2022-12-18T03:55:58;32.85;;;12.50;;
24585;SDS011;12743;52.262;6.172;2022-12-18T03:58:31;40.30;;;14.48;;
24585;SDS011;12743;52.262;6.172;2022-12-18T04:01:13;33.00;;;13.63;;
24585;SDS011;12743;52.262;6.172;2022-12-18T04:03:42;34.88;;;13.90;;
24585;SDS011;12743;52.262;6.172;2022-12-18T04:06:11;39.87;;;12.80;;
24585;SDS011;12743;52.262;6.172;2022-12-18T04:08:41;32.50;;;12.90;;
24585;SDS011;12743;52.262;6.172;2022-12-18T04:11:11;34.63;;;13.45;;
24585;SDS011;12743;52.262;6.172;2022-12-18T04:13:38;35.17;;;12.93;;
24585;SDS011;12743;52.262;6.172;2022-12-18T04:16:10;31.35;;;12.25;;
24585;SDS011;12743;52.262;6.172;2022-12-18T04:18:40;38.40;;;13.27;;
24585;SDS011;12743;52.262;6.172;2022-12-18T04:21:06;32.95;;;13.23;;
24585;SDS011;12743;52.262;6.172;2022-12-18T04:23:33;36.45;;;12.75;;
24585;SDS011;12743;52.262;6.172;2022-12-18T04:26:01;37.90;;;15.05;;
24585;SDS011;12743;52.262;6.172;2022-12-18T04:28:42;38.70;;;15.77;;
24585;SDS011;12743;52.262;6.172;2022-12-18T04:31:09;41.13;;;16.93;;
24585;SDS011;12743;52.262;6.172;2022-12-18T04:33:35;38.47;;;15.35;;
24585;SDS011;12743;52.262;6.172;2022-12-18T04:36:03;34.70;;;13.15;;
24585;SDS011;12743;52.262;6.172;2022-12-18T04:38:30;36.55;;;13.57;;
24585;SDS011;12743;52.262;6.172;2022-12-18T04:41:03;32.15;;;13.10;;
24585;SDS011;12743;52.262;6.172;2022-12-18T04:43:30;30.17;;;12.47;;
24585;SDS011;12743;52.262;6.172;2022-12-18T04:46:06;42.67;;;13.45;;
24585;SDS011;12743;52.262;6.172;2022-12-18T04:48:34;34.40;;;11.63;;
24585;SDS011;12743;52.262;6.172;2022-12-18T04:51:01;33.72;;;12.05;;
24585;SDS011;12743;52.262;6.172;2022-12-18T04:53:28;32.15;;;12.80;;
24585;SDS011;12743;52.262;6.172;2022-12-18T04:58:32;34.13;;;12.48;;
24585;SDS011;12743;52.262;6.172;2022-12-18T05:00:58;33.47;;;12.35;;
24585;SDS011;12743;52.262;6.172;2022-12-18T05:03:26;27.23;;;11.18;;
24585;SDS011;12743;52.262;6.172;2022-12-18T05:05:53;33.25;;;11.75;;
24585;SDS011;12743;52.262;6.172;2022-12-18T05:08:19;30.00;;;11.87;;
24585;SDS011;12743;52.262;6.172;2022-12-18T05:10:46;30.40;;;11.82;;
24585;SDS011;12743;52.262;6.172;2022-12-18T05:13:12;30.73;;;11.73;;
24585;SDS011;12743;52.262;6.172;2022-12-18T05:15:39;29.75;;;11.40;;
24585;SDS011;12743;52.262;6.172;2022-12-18T05:18:05;25.58;;;11.23;;
24585;SDS011;12743;52.262;6.172;2022-12-18T05:20:32;27.27;;;10.67;;
24585;SDS011;12743;52.262;6.172;2022-12-18T05:22:58;31.95;;;11.70;;
24585;SDS011;12743;52.262;6.172;2022-12-18T05:25:26;31.45;;;11.82;;
24585;SDS011;12743;52.262;6.172;2022-12-18T05:27:52;25.77;;;11.13;;
24585;SDS011;12743;52.262;6.172;2022-12-18T05:30:19;30.75;;;10.73;;
24585;SDS011;12743;52.262;6.172;2022-12-18T05:32:45;29.17;;;11.40;;
24585;SDS011;12743;52.262;6.172;2022-12-18T05:35:12;28.20;;;10.65;;
24585;SDS011;12743;52.262;6.172;2022-12-18T05:37:38;30.02;;;11.20;;
24585;SDS011;12743;52.262;6.172;2022-12-18T05:40:08;27.55;;;10.63;;
24585;SDS011;12743;52.262;6.172;2022-12-18T05:42:36;27.00;;;10.13;;
24585;SDS011;12743;52.262;6.172;2022-12-18T05:45:02;29.37;;;11.07;;
24585;SDS011;12743;52.262;6.172;2022-12-18T05:47:29;29.67;;;10.98;;
24585;SDS011;12743;52.262;6.172;2022-12-18T05:49:56;27.60;;;10.85;;
24585;SDS011;12743;52.262;6.172;2022-12-18T05:52:23;28.80;;;10.88;;
24585;SDS011;12743;52.262;6.172;2022-12-18T05:54:49;24.02;;;10.43;;
24585;SDS011;12743;52.262;6.172;2022-12-18T05:57:16;26.73;;;10.17;;
24585;SDS011;12743;52.262;6.172;2022-12-18T05:59:42;28.20;;;10.93;;
24585;SDS011;12743;52.262;6.172;2022-12-18T06:02:09;27.80;;;11.10;;
24585;SDS011;12743;52.262;6.172;2022-12-18T06:04:36;29.33;;;10.80;;
24585;SDS011;12743;52.262;6.172;2022-12-18T06:07:02;28.83;;;10.88;;
24585;SDS011;12743;52.262;6.172;2022-12-18T06:09:29;25.87;;;10.90;;
24585;SDS011;12743;52.262;6.172;2022-12-18T06:11:55;23.27;;;10.18;;
24585;SDS011;12743;52.262;6.172;2022-12-18T06:14:22;28.58;;;10.27;;
24585;SDS011;12743;52.262;6.172;2022-12-18T06:16:50;24.23;;;10.18;;
24585;SDS011;12743;52.262;6.172;2022-12-18T06:19:17;22.75;;;9.23;;
24585;SDS011;12743;52.262;6.172;2022-12-18T06:21:44;27.60;;;11.00;;
24585;SDS011;12743;52.262;6.172;2022-12-18T06:24:10;26.85;;;10.00;;
24585;SDS011;12743;52.262;6.172;2022-12-18T06:26:37;26.10;;;10.85;;
24585;SDS011;12743;52.262;6.172;2022-12-18T06:29:05;26.23;;;9.95;;
24585;SDS011;12743;52.262;6.172;2022-12-18T06:31:31;22.33;;;10.25;;
24585;SDS011;12743;52.262;6.172;2022-12-18T06:33:59;23.80;;;9.37;;
24585;SDS011;12743;52.262;6.172;2022-12-18T06:36:29;27.52;;;10.88;;
24585;SDS011;12743;52.262;6.172;2022-12-18T06:38:55;25.88;;;10.30;;
24585;SDS011;12743;52.262;6.172;2022-12-18T06:41:22;27.73;;;10.60;;
24585;SDS011;12743;52.262;6.172;2022-12-18T06:43:49;27.67;;;10.80;;
24585;SDS011;12743;52.262;6.172;2022-12-18T06:46:16;25.50;;;10.20;;
24585;SDS011;12743;52.262;6.172;2022-12-18T06:48:42;21.17;;;9.30;;
24585;SDS011;12743;52.262;6.172;2022-12-18T06:51:12;28.00;;;10.50;;
24585;SDS011;12743;52.262;6.172;2022-12-18T06:53:42;27.90;;;10.80;;
24585;SDS011;12743;52.262;6.172;2022-12-18T06:56:09;25.70;;;10.45;;
24585;SDS011;12743;52.262;6.172;2022-12-18T06:58:36;23.60;;;10.27;;
24585;SDS011;12743;52.262;6.172;2022-12-18T07:01:04;24.08;;;10.07;;
24585;SDS011;12743;52.262;6.172;2022-12-18T07:03:32;24.42;;;10.25;;
24585;SDS011;12743;52.262;6.172;2022-12-18T07:05:59;26.63;;;11.00;;
24585;SDS011;12743;52.262;6.172;2022-12-18T07:08:26;29.92;;;13.13;;
24585;SDS011;12743;52.262;6.172;2022-12-18T07:10:52;27.27;;;11.43;;
24585;SDS011;12743;52.262;6.172;2022-12-18T07:13:21;25.20;;;10.70;;
24585;SDS011;12743;52.262;6.172;2022-12-18T07:15:48;31.42;;;12.93;;
24585;SDS011;12743;52.262;6.172;2022-12-18T07:18:15;27.17;;;11.38;;
24585;SDS011;12743;52.262;6.172;2022-12-18T07:20:41;25.25;;;10.82;;
24585;SDS011;12743;52.262;6.172;2022-12-18T07:23:08;24.83;;;10.37;;
24585;SDS011;12743;52.262;6.172;2022-12-18T07:25:35;24.90;;;10.65;;
24585;SDS011;12743;52.262;6.172;2022-12-18T07:28:03;25.00;;;10.73;;
24585;SDS011;12743;52.262;6.172;2022-12-18T07:30:30;27.33;;;11.88;;
24585;SDS011;12743;52.262;6.172;2022-12-18T07:32:57;23.83;;;10.40;;
24585;SDS011;12743;52.262;6.172;2022-12-18T07:35:23;25.80;;;10.57;;
24585;SDS011;12743;52.262;6.172;2022-12-18T07:37:50;28.88;;;11.60;;
24585;SDS011;12743;52.262;6.172;2022-12-18T07:40:17;30.95;;;11.70;;
24585;SDS011;12743;52.262;6.172;2022-12-18T07:42:43;28.35;;;11.57;;
24585;SDS011;12743;52.262;6.172;2022-12-18T07:45:10;28.25;;;11.25;;
24585;SDS011;12743;52.262;6.172;2022-12-18T07:47:37;23.67;;;9.80;;
24585;SDS011;12743;52.262;6.172;2022-12-18T07:50:04;26.35;;;10.82;;
24585;SDS011;12743;52.262;6.172;2022-12-18T07:52:31;29.08;;;10.55;;
24585;SDS011;12743;52.262;6.172;2022-12-18T07:54:58;29.27;;;11.18;;
24585;SDS011;12743;52.262;6.172;2022-12-18T07:57:25;23.60;;;10.18;;
24585;SDS011;12743;52.262;6.172;2022-12-18T08:00:11;24.57;;;10.13;;
24585;SDS011;12743;52.262;6.172;2022-12-18T08:02:38;22.95;;;9.82;;
24585;SDS011;12743;52.262;6.172;2022-12-18T08:05:05;28.40;;;10.45;;
24585;SDS011;12743;52.262;6.172;2022-12-18T08:07:32;25.75;;;10.43;;
24585;SDS011;12743;52.262;6.172;2022-12-18T08:09:58;24.08;;;10.32;;
24585;SDS011;12743;52.262;6.172;2022-12-18T08:12:25;26.37;;;10.10;;
24585;SDS011;12743;52.262;6.172;2022-12-18T08:14:51;26.55;;;10.30;;
24585;SDS011;12743;52.262;6.172;2022-12-18T08:17:19;30.70;;;11.00;;
24585;SDS011;12743;52.262;6.172;2022-12-18T08:19:46;27.13;;;10.95;;
24585;SDS011;12743;52.262;6.172;2022-12-18T08:22:12;24.20;;;10.00;;
24585;SDS011;12743;52.262;6.172;2022-12-18T08:24:39;26.23;;;10.63;;
24585;SDS011;12743;52.262;6.172;2022-12-18T08:27:05;25.27;;;10.00;;
24585;SDS011;12743;52.262;6.172;2022-12-18T08:29:52;24.33;;;10.45;;
24585;SDS011;12743;52.262;6.172;2022-12-18T08:32:18;25.73;;;10.27;;
24585;SDS011;12743;52.262;6.172;2022-12-18T08:34:45;23.60;;;10.50;;
24585;SDS011;12743;52.262;6.172;2022-12-18T08:37:11;25.13;;;9.90;;
24585;SDS011;12743;52.262;6.172;2022-12-18T08:39:38;26.63;;;10.65;;
24585;SDS011;12743;52.262;6.172;2022-12-18T08:42:05;25.05;;;11.02;;
24585;SDS011;12743;52.262;6.172;2022-12-18T08:44:50;27.70;;;11.23;;
24585;SDS011;12743;52.262;6.172;2022-12-18T08:47:16;27.35;;;11.43;;
24585;SDS011;12743;52.262;6.172;2022-12-18T08:49:43;24.93;;;9.53;;
24585;SDS011;12743;52.262;6.172;2022-12-18T08:52:09;22.40;;;9.93;;
24585;SDS011;12743;52.262;6.172;2022-12-18T08:54:36;25.95;;;9.68;;
24585;SDS011;12743;52.262;6.172;2022-12-18T08:57:03;20.50;;;9.23;;
24585;SDS011;12743;52.262;6.172;2022-12-18T08:59:29;22.88;;;10.23;;
24585;SDS011;12743;52.262;6.172;2022-12-18T09:01:56;25.20;;;11.40;;
24585;SDS011;12743;52.262;6.172;2022-12-18T09:04:22;24.55;;;10.57;;
24585;SDS011;12743;52.262;6.172;2022-12-18T09:06:49;22.27;;;9.13;;
24585;SDS011;12743;52.262;6.172;2022-12-18T09:09:15;21.67;;;8.93;;
24585;SDS011;12743;52.262;6.172;2022-12-18T09:11:42;22.35;;;9.10;;
24585;SDS011;12743;52.262;6.172;2022-12-18T09:14:09;20.70;;;9.10;;
24585;SDS011;12743;52.262;6.172;2022-12-18T09:16:36;20.05;;;9.60;;
24585;SDS011;12743;52.262;6.172;2022-12-18T09:19:03;21.63;;;9.75;;
24585;SDS011;12743;52.262;6.172;2022-12-18T09:21:31;41.00;;;16.75;;
24585;SDS011;12743;52.262;6.172;2022-12-18T09:24:02;29.48;;;12.40;;
24585;SDS011;12743;52.262;6.172;2022-12-18T09:26:32;22.90;;;10.77;;
24585;SDS011;12743;52.262;6.172;2022-12-18T09:28:58;23.38;;;10.02;;
24585;SDS011;12743;52.262;6.172;2022-12-18T09:31:25;22.73;;;8.88;;
24585;SDS011;12743;52.262;6.172;2022-12-18T09:33:51;25.48;;;10.45;;
24585;SDS011;12743;52.262;6.172;2022-12-18T09:36:18;22.98;;;10.95;;
24585;SDS011;12743;52.262;6.172;2022-12-18T09:38:45;19.17;;;8.63;;
24585;SDS011;12743;52.262;6.172;2022-12-18T09:43:54;22.58;;;10.15;;
24585;SDS011;12743;52.262;6.172;2022-12-18T09:46:44;22.40;;;10.23;;
24585;SDS011;12743;52.262;6.172;2022-12-18T09:49:28;19.90;;;9.25;;
24585;SDS011;12743;52.262;6.172;2022-12-18T09:52:02;25.30;;;12.60;;
24585;SDS011;12743;52.262;6.172;2022-12-18T09:54:44;20.27;;;9.55;;
24585;SDS011;12743;52.262;6.172;2022-12-18T09:57:15;17.70;;;7.85;;
24585;SDS011;12743;52.262;6.172;2022-12-18T09:59:46;19.80;;;8.85;;
24585;SDS011;12743;52.262;6.172;2022-12-18T10:02:19;19.63;;;9.73;;
24585;SDS011;12743;52.262;6.172;2022-12-18T10:04:58;19.23;;;9.17;;
24585;SDS011;12743;52.262;6.172;2022-12-18T10:07:47;20.73;;;8.82;;
24585;SDS011;12743;52.262;6.172;2022-12-18T10:29:40;14.65;;;6.97;;
24585;SDS011;12743;52.262;6.172;2022-12-18T10:32:09;14.03;;;6.20;;
24585;SDS011;12743;52.262;6.172;2022-12-18T10:34:44;17.58;;;7.28;;
24585;SDS011;12743;52.262;6.172;2022-12-18T10:37:14;15.27;;;6.35;;
24585;SDS011;12743;52.262;6.172;2022-12-18T10:39:43;14.65;;;6.15;;
24585;SDS011;12743;52.262;6.172;2022-12-18T10:42:19;14.57;;;5.90;;
24585;SDS011;12743;52.262;6.172;2022-12-18T10:44:46;14.63;;;5.40;;
24585;SDS011;12743;52.262;6.172;2022-12-18T10:47:28;13.02;;;5.88;;
24585;SDS011;12743;52.262;6.172;2022-12-18T10:49:54;14.82;;;5.88;;
24585;SDS011;12743;52.262;6.172;2022-12-18T10:52:22;15.85;;;6.63;;
24585;SDS011;12743;52.262;6.172;2022-12-18T10:55:01;13.57;;;6.50;;
24585;SDS011;12743;52.262;6.172;2022-12-18T10:57:37;16.03;;;7.23;;
24585;SDS011;12743;52.262;6.172;2022-12-18T11:02:51;15.73;;;7.03;;
24585;SDS011;12743;52.262;6.172;2022-12-18T11:05:30;16.42;;;7.13;;
24585;SDS011;12743;52.262;6.172;2022-12-18T11:08:00;13.77;;;6.68;;
24585;SDS011;12743;52.262;6.172;2022-12-18T11:10:31;19.80;;;6.20;;
24585;SDS011;12743;52.262;6.172;2022-12-18T11:13:09;14.43;;;6.43;;
24585;SDS011;12743;52.262;6.172;2022-12-18T11:15:42;15.05;;;7.30;;
24585;SDS011;12743;52.262;6.172;2022-12-18T11:18:16;13.63;;;5.65;;
24585;SDS011;12743;52.262;6.172;2022-12-18T11:20:50;11.98;;;5.05;;
24585;SDS011;12743;52.262;6.172;2022-12-18T11:23:24;16.10;;;5.77;;
24585;SDS011;12743;52.262;6.172;2022-12-18T11:25:55;13.48;;;6.15;;
24585;SDS011;12743;52.262;6.172;2022-12-18T11:28:25;13.00;;;5.45;;
24585;SDS011;12743;52.262;6.172;2022-12-18T11:31:34;13.82;;;5.22;;
24585;SDS011;12743;52.262;6.172;2022-12-18T11:33:52;12.95;;;5.57;;
24585;SDS011;12743;52.262;6.172;2022-12-18T11:36:46;15.07;;;5.63;;
24585;SDS011;12743;52.262;6.172;2022-12-18T11:39:19;13.85;;;5.93;;
24585;SDS011;12743;52.262;6.172;2022-12-18T11:41:54;13.88;;;5.82;;
24585;SDS011;12743;52.262;6.172;2022-12-18T11:44:36;14.63;;;5.82;;
24585;SDS011;12743;52.262;6.172;2022-12-18T11:50:13;12.30;;;5.50;;
24585;SDS011;12743;52.262;6.172;2022-12-18T11:52:42;13.18;;;5.90;;
24585;SDS011;12743;52.262;6.172;2022-12-18T11:55:11;14.88;;;6.10;;
24585;SDS011;12743;52.262;6.172;2022-12-18T11:58:03;15.55;;;6.22;;
24585;SDS011;12743;52.262;6.172;2022-12-18T12:00:42;13.10;;;4.25;;
24585;SDS011;12743;52.262;6.172;2022-12-18T12:03:19;15.70;;;5.67;;
24585;SDS011;12743;52.262;6.172;2022-12-18T12:11:50;17.00;;;6.93;;
24585;SDS011;12743;52.262;6.172;2022-12-18T12:14:32;16.88;;;7.80;;
24585;SDS011;12743;52.262;6.172;2022-12-18T12:17:15;20.73;;;7.33;;
24585;SDS011;12743;52.262;6.172;2022-12-18T12:20:18;11.77;;;4.65;;
24585;SDS011;12743;52.262;6.172;2022-12-18T12:22:53;18.05;;;6.70;;
24585;SDS011;12743;52.262;6.172;2022-12-18T12:25:32;11.65;;;5.25;;
24585;SDS011;12743;52.262;6.172;2022-12-18T12:36:06;12.65;;;5.38;;
24585;SDS011;12743;52.262;6.172;2022-12-18T12:38:47;13.15;;;4.90;;
24585;SDS011;12743;52.262;6.172;2022-12-18T12:41:21;16.05;;;7.63;;
24585;SDS011;12743;52.262;6.172;2022-12-18T12:44:15;26.87;;;10.03;;
24585;SDS011;12743;52.262;6.172;2022-12-18T12:46:45;30.85;;;12.15;;
24585;SDS011;12743;52.262;6.172;2022-12-18T12:49:15;19.40;;;7.93;;
24585;SDS011;12743;52.262;6.172;2022-12-18T12:51:50;17.58;;;7.60;;
24585;SDS011;12743;52.262;6.172;2022-12-18T12:54:25;19.10;;;7.40;;
24585;SDS011;12743;52.262;6.172;2022-12-18T12:57:09;15.30;;;5.67;;
24585;SDS011;12743;52.262;6.172;2022-12-18T12:59:58;13.88;;;6.75;;
24585;SDS011;12743;52.262;6.172;2022-12-18T13:05:19;17.08;;;6.95;;
24585;SDS011;12743;52.262;6.172;2022-12-18T13:08:06;15.10;;;5.65;;
24585;SDS011;12743;52.262;6.172;2022-12-18T13:10:36;16.07;;;6.30;;
24585;SDS011;12743;52.262;6.172;2022-12-18T13:13:10;12.88;;;5.35;;
24585;SDS011;12743;52.262;6.172;2022-12-18T13:15:50;12.13;;;5.45;;
24585;SDS011;12743;52.262;6.172;2022-12-18T13:18:33;13.60;;;5.50;;
24585;SDS011;12743;52.262;6.172;2022-12-18T13:30:59;13.55;;;6.28;;
24585;SDS011;12743;52.262;6.172;2022-12-18T13:33:37;10.98;;;5.07;;
24585;SDS011;12743;52.262;6.172;2022-12-18T13:36:29;12.40;;;6.10;;
24585;SDS011;12743;52.262;6.172;2022-12-18T13:44:35;19.50;;;7.53;;
24585;SDS011;12743;52.262;6.172;2022-12-18T13:47:25;15.20;;;7.47;;
24585;SDS011;12743;52.262;6.172;2022-12-18T13:49:52;15.90;;;6.77;;
24585;SDS011;12743;52.262;6.172;2022-12-18T13:52:20;22.38;;;8.10;;
24585;SDS011;12743;52.262;6.172;2022-12-18T13:54:51;14.50;;;6.28;;
24585;SDS011;12743;52.262;6.172;2022-12-18T13:57:34;14.55;;;6.47;;
24585;SDS011;12743;52.262;6.172;2022-12-18T14:02:48;14.47;;;7.27;;
24585;SDS011;12743;52.262;6.172;2022-12-18T14:05:25;13.75;;;5.85;;
24585;SDS011;12743;52.262;6.172;2022-12-18T14:07:59;16.10;;;6.32;;
24585;SDS011;12743;52.262;6.172;2022-12-18T14:10:32;13.68;;;5.80;;
24585;SDS011;12743;52.262;6.172;2022-12-18T14:13:26;17.05;;;7.50;;
24585;SDS011;12743;52.262;6.172;2022-12-18T14:15:55;13.03;;;5.90;;
24585;SDS011;12743;52.262;6.172;2022-12-18T14:18:25;11.77;;;5.70;;
24585;SDS011;12743;52.262;6.172;2022-12-18T14:20:56;13.23;;;5.95;;
24585;SDS011;12743;52.262;6.172;2022-12-18T14:23:28;11.85;;;5.68;;
24585;SDS011;12743;52.262;6.172;2022-12-18T14:25:57;13.73;;;5.78;;
24585;SDS011;12743;52.262;6.172;2022-12-18T14:28:31;15.43;;;5.33;;
24585;SDS011;12743;52.262;6.172;2022-12-18T14:30:57;13.07;;;5.57;;
24585;SDS011;12743;52.262;6.172;2022-12-18T14:33:25;13.93;;;5.90;;
24585;SDS011;12743;52.262;6.172;2022-12-18T14:41:02;14.10;;;6.60;;
24585;SDS011;12743;52.262;6.172;2022-12-18T14:43:34;15.90;;;6.43;;
24585;SDS011;12743;52.262;6.172;2022-12-18T14:46:03;14.35;;;6.45;;
24585;SDS011;12743;52.262;6.172;2022-12-18T14:48:39;15.32;;;6.18;;
24585;SDS011;12743;52.262;6.172;2022-12-18T14:54:01;26.73;;;11.57;;
24585;SDS011;12743;52.262;6.172;2022-12-18T14:56:30;21.80;;;10.32;;
24585;SDS011;12743;52.262;6.172;2022-12-18T14:59:00;16.65;;;7.95;;
24585;SDS011;12743;52.262;6.172;2022-12-18T15:01:39;16.85;;;8.40;;
24585;SDS011;12743;52.262;6.172;2022-12-18T15:04:26;16.75;;;7.65;;
24585;SDS011;12743;52.262;6.172;2022-12-18T15:10:00;16.02;;;7.47;;
24585;SDS011;12743;52.262;6.172;2022-12-18T15:12:40;15.00;;;6.47;;
24585;SDS011;12743;52.262;6.172;2022-12-18T15:18:00;12.05;;;5.10;;
24585;SDS011;12743;52.262;6.172;2022-12-18T15:20:30;16.33;;;5.70;;
24585;SDS011;12743;52.262;6.172;2022-12-18T15:22:58;13.05;;;5.68;;
24585;SDS011;12743;52.262;6.172;2022-12-18T15:25:30;17.05;;;6.22;;
24585;SDS011;12743;52.262;6.172;2022-12-18T15:28:00;20.52;;;7.80;;
24585;SDS011;12743;52.262;6.172;2022-12-18T15:30:26;13.48;;;6.10;;
24585;SDS011;12743;52.262;6.172;2022-12-18T15:33:16;14.07;;;5.90;;
24585;SDS011;12743;52.262;6.172;2022-12-18T15:35:43;14.05;;;6.57;;
24585;SDS011;12743;52.262;6.172;2022-12-18T15:38:12;13.18;;;5.65;;
24585;SDS011;12743;52.262;6.172;2022-12-18T15:40:39;14.10;;;5.40;;
24585;SDS011;12743;52.262;6.172;2022-12-18T15:43:07;14.93;;;6.32;;
24585;SDS011;12743;52.262;6.172;2022-12-18T15:45:53;25.33;;;12.00;;
24585;SDS011;12743;52.262;6.172;2022-12-18T15:48:21;16.35;;;6.50;;
24585;SDS011;12743;52.262;6.172;2022-12-18T15:50:49;13.70;;;5.88;;
24585;SDS011;12743;52.262;6.172;2022-12-18T15:53:18;15.10;;;6.38;;
24585;SDS011;12743;52.262;6.172;2022-12-18T15:55:45;23.65;;;11.02;;
24585;SDS011;12743;52.262;6.172;2022-12-18T15:58:30;20.13;;;7.43;;
24585;SDS011;12743;52.262;6.172;2022-12-18T16:00:58;13.98;;;6.80;;
24585;SDS011;12743;52.262;6.172;2022-12-18T16:03:28;12.60;;;6.00;;
24585;SDS011;12743;52.262;6.172;2022-12-18T16:05:54;12.93;;;6.68;;
24585;SDS011;12743;52.262;6.172;2022-12-18T16:08:22;12.35;;;6.13;;
24585;SDS011;12743;52.262;6.172;2022-12-18T16:10:48;12.10;;;6.50;;
24585;SDS011;12743;52.262;6.172;2022-12-18T16:13:15;15.27;;;6.78;;
24585;SDS011;12743;52.262;6.172;2022-12-18T16:15:44;14.55;;;7.68;;
24585;SDS011;12743;52.262;6.172;2022-12-18T16:18:11;13.18;;;6.22;;
24585;SDS011;12743;52.262;6.172;2022-12-18T16:20:37;14.02;;;7.50;;
24585;SDS011;12743;52.262;6.172;2022-12-18T16:23:04;18.17;;;7.83;;
24585;SDS011;12743;52.262;6.172;2022-12-18T16:25:31;22.20;;;10.38;;
24585;SDS011;12743;52.262;6.172;2022-12-18T16:27:58;26.85;;;12.32;;
24585;SDS011;12743;52.262;6.172;2022-12-18T16:30:26;17.98;;;7.95;;
24585;SDS011;12743;52.262;6.172;2022-12-18T16:33:03;13.38;;;6.85;;
24585;SDS011;12743;52.262;6.172;2022-12-18T16:35:30;14.53;;;6.20;;